sensor_id;sensor_type;location;lat;lon;timestamp;temperature;humidity
70475;DHT22;57944;48.722;9.316;2022-10-31T00:02:20;10.40;99.90
70475;DHT22;57944;48.722;9.316;2022-10-31T00:04:51;10.50;99.90
70475;DHT22;57944;48.722;9.316;2022-10-31T00:07:21;10.50;99.90
70475;DHT22;57944;48.722;9.316;2022-10-31T00:09:51;10.40;99.90
70475;DHT22;57944;48.722;9.316;2022-10-31T00:12:21;10.40;99.90
70475;DHT22;57944;48.722;9.316;2022-10-31T00:14:51;10.50;99.90
70475;DHT22;57944;48.722;9.316;2022-10-31T00:17:24;10.40;99.90
70475;DHT22;57944;48.722;9.316;2022-10-31T00:19:54;10.20;99.90
70475;DHT22;57944;48.722;9.316;2022-10-31T00:22:25;10.10;99.90
70475;DHT22;57944;48.722;9.316;2022-10-31T00:24:55;10.00;99.90
70475;DHT22;57944;48.722;9.316;2022-10-31T00:27:25;10.00;99.90
70475;DHT22;57944;48.722;9.316;2022-10-31T00:29:55;10.00;99.90
70475;DHT22;57944;48.722;9.316;2022-10-31T00:32:28;10.10;99.90
70475;DHT22;57944;48.722;9.316;2022-10-31T00:34:59;10.40;99.90
70475;DHT22;57944;48.722;9.316;2022-10-31T00:37:29;10.60;99.90
70475;DHT22;57944;48.722;9.316;2022-10-31T00:39:59;10.50;99.90
70475;DHT22;57944;48.722;9.316;2022-10-31T00:42:30;10.40;99.90
70475;DHT22;57944;48.722;9.316;2022-10-31T00:45:00;10.30;99.90
70475;DHT22;57944;48.722;9.316;2022-10-31T00:47:33;10.10;99.90
70475;DHT22;57944;48.722;9.316;2022-10-31T00:50:04;10.00;99.90
70475;DHT22;57944;48.722;9.316;2022-10-31T00:52:35;9.90;99.90
70475;DHT22;57944;48.722;9.316;2022-10-31T00:55:05;9.90;99.90
70475;DHT22;57944;48.722;9.316;2022-10-31T00:57:36;9.90;99.90
70475;DHT22;57944;48.722;9.316;2022-10-31T01:00:08;10.00;99.90
70475;DHT22;57944;48.722;9.316;2022-10-31T01:02:42;9.90;99.90
70475;DHT22;57944;48.722;9.316;2022-10-31T01:05:12;9.80;99.90
70475;DHT22;57944;48.722;9.316;2022-10-31T01:07:44;9.80;99.90
70475;DHT22;57944;48.722;9.316;2022-10-31T01:10:15;9.70;99.90
70475;DHT22;57944;48.722;9.316;2022-10-31T01:12:47;9.60;99.90
70475;DHT22;57944;48.722;9.316;2022-10-31T01:15:22;9.50;99.90
70475;DHT22;57944;48.722;9.316;2022-10-31T01:17:55;9.70;99.90
70475;DHT22;57944;48.722;9.316;2022-10-31T01:20:26;9.60;99.90
70475;DHT22;57944;48.722;9.316;2022-10-31T01:22:57;9.60;99.90
70475;DHT22;57944;48.722;9.316;2022-10-31T01:25:27;9.50;99.90
70475;DHT22;57944;48.722;9.316;2022-10-31T01:27:57;9.50;99.90
70475;DHT22;57944;48.722;9.316;2022-10-31T01:30:27;9.50;99.90
70475;DHT22;57944;48.722;9.316;2022-10-31T01:33:00;9.50;99.90
70475;DHT22;57944;48.722;9.316;2022-10-31T01:35:30;9.50;99.90
70475;DHT22;57944;48.722;9.316;2022-10-31T01:38:00;9.50;99.90
70475;DHT22;57944;48.722;9.316;2022-10-31T01:40:30;9.50;99.90
70475;DHT22;57944;48.722;9.316;2022-10-31T01:43:01;9.40;99.90
70475;DHT22;57944;48.722;9.316;2022-10-31T01:45:31;9.40;99.90
70475;DHT22;57944;48.722;9.316;2022-10-31T01:48:04;9.40;99.90
70475;DHT22;57944;48.722;9.316;2022-10-31T01:50:37;9.20;99.90
70475;DHT22;57944;48.722;9.316;2022-10-31T01:53:10;9.30;99.90
70475;DHT22;57944;48.722;9.316;2022-10-31T01:55:44;9.40;99.90
70475;DHT22;57944;48.722;9.316;2022-10-31T01:58:19;9.40;99.90
70475;DHT22;57944;48.722;9.316;2022-10-31T02:00:57;9.50;99.90
70475;DHT22;57944;48.722;9.316;2022-10-31T02:03:36;9.60;99.90
70475;DHT22;57944;48.722;9.316;2022-10-31T02:06:10;9.90;99.90
70475;DHT22;57944;48.722;9.316;2022-10-31T02:08:49;10.00;99.90
70475;DHT22;57944;48.722;9.316;2022-10-31T02:11:21;9.90;99.90
70475;DHT22;57944;48.722;9.316;2022-10-31T02:13:52;9.60;99.90
70475;DHT22;57944;48.722;9.316;2022-10-31T02:16:22;9.30;99.90
70475;DHT22;57944;48.722;9.316;2022-10-31T02:18:56;9.40;99.90
70475;DHT22;57944;48.722;9.316;2022-10-31T02:21:32;9.40;99.90
70475;DHT22;57944;48.722;9.316;2022-10-31T02:24:44;9.30;99.90
70475;DHT22;57944;48.722;9.316;2022-10-31T02:30:38;9.30;99.90
70475;DHT22;57944;48.722;9.316;2022-10-31T02:33:23;9.40;99.90
70475;DHT22;57944;48.722;9.316;2022-10-31T02:36:04;9.60;99.90
70475;DHT22;57944;48.722;9.316;2022-10-31T02:38:49;9.60;99.90
70475;DHT22;57944;48.722;9.316;2022-10-31T02:41:37;9.60;99.90
70475;DHT22;57944;48.722;9.316;2022-10-31T02:44:22;9.50;99.90
70475;DHT22;57944;48.722;9.316;2022-10-31T02:47:00;9.50;99.90
70475;DHT22;57944;48.722;9.316;2022-10-31T02:49:40;9.60;99.90
70475;DHT22;57944;48.722;9.316;2022-10-31T02:52:20;9.80;99.90
70475;DHT22;57944;48.722;9.316;2022-10-31T02:54:51;9.70;99.90
70475;DHT22;57944;48.722;9.316;2022-10-31T02:57:24;9.70;99.90
70475;DHT22;57944;48.722;9.316;2022-10-31T03:00:04;9.60;99.90
70475;DHT22;57944;48.722;9.316;2022-10-31T03:02:56;9.40;99.90
70475;DHT22;57944;48.722;9.316;2022-10-31T03:05:50;9.30;99.90
70475;DHT22;57944;48.722;9.316;2022-10-31T03:08:32;9.30;99.90
70475;DHT22;57944;48.722;9.316;2022-10-31T03:11:09;9.30;99.90
70475;DHT22;57944;48.722;9.316;2022-10-31T03:13:44;9.40;99.90
70475;DHT22;57944;48.722;9.316;2022-10-31T03:16:25;9.30;99.90
70475;DHT22;57944;48.722;9.316;2022-10-31T03:19:04;9.30;99.90
70475;DHT22;57944;48.722;9.316;2022-10-31T03:21:43;9.30;99.90
70475;DHT22;57944;48.722;9.316;2022-10-31T03:24:16;9.20;99.90
70475;DHT22;57944;48.722;9.316;2022-10-31T03:26:51;9.10;99.90
70475;DHT22;57944;48.722;9.316;2022-10-31T03:29:27;9.10;99.90
70475;DHT22;57944;48.722;9.316;2022-10-31T03:32:04;9.00;99.90
70475;DHT22;57944;48.722;9.316;2022-10-31T03:34:39;9.00;99.90
70475;DHT22;57944;48.722;9.316;2022-10-31T03:37:19;9.10;99.90
70475;DHT22;57944;48.722;9.316;2022-10-31T03:39:53;9.10;99.90
70475;DHT22;57944;48.722;9.316;2022-10-31T03:42:29;9.00;99.90
70475;DHT22;57944;48.722;9.316;2022-10-31T03:45:06;8.90;99.90
70475;DHT22;57944;48.722;9.316;2022-10-31T03:47:41;8.80;99.90
70475;DHT22;57944;48.722;9.316;2022-10-31T03:50:15;8.70;99.90
70475;DHT22;57944;48.722;9.316;2022-10-31T03:52:54;8.70;99.90
70475;DHT22;57944;48.722;9.316;2022-10-31T03:55:31;8.70;99.90
70475;DHT22;57944;48.722;9.316;2022-10-31T03:58:12;8.70;99.90
70475;DHT22;57944;48.722;9.316;2022-10-31T04:00:51;8.70;99.90
70475;DHT22;57944;48.722;9.316;2022-10-31T04:03:26;8.50;99.90
70475;DHT22;57944;48.722;9.316;2022-10-31T04:06:03;8.30;99.90
70475;DHT22;57944;48.722;9.316;2022-10-31T04:08:51;8.20;99.90
70475;DHT22;57944;48.722;9.316;2022-10-31T04:11:30;8.20;99.90
70475;DHT22;57944;48.722;9.316;2022-10-31T04:14:25;8.30;99.90
70475;DHT22;57944;48.722;9.316;2022-10-31T04:16:57;8.30;99.90
70475;DHT22;57944;48.722;9.316;2022-10-31T04:19:35;8.20;99.90
70475;DHT22;57944;48.722;9.316;2022-10-31T04:22:05;8.30;99.90
70475;DHT22;57944;48.722;9.316;2022-10-31T04:24:39;8.10;99.90
70475;DHT22;57944;48.722;9.316;2022-10-31T04:27:13;8.10;99.90
70475;DHT22;57944;48.722;9.316;2022-10-31T04:29:43;8.20;99.90
70475;DHT22;57944;48.722;9.316;2022-10-31T04:32:17;8.30;99.90
70475;DHT22;57944;48.722;9.316;2022-10-31T04:34:47;8.10;99.90
70475;DHT22;57944;48.722;9.316;2022-10-31T04:37:17;8.10;99.90
70475;DHT22;57944;48.722;9.316;2022-10-31T04:39:50;8.00;99.90
70475;DHT22;57944;48.722;9.316;2022-10-31T04:42:39;8.00;99.90
70475;DHT22;57944;48.722;9.316;2022-10-31T04:45:10;7.90;99.90
70475;DHT22;57944;48.722;9.316;2022-10-31T04:47:47;8.00;99.90
70475;DHT22;57944;48.722;9.316;2022-10-31T04:50:18;8.10;99.90
70475;DHT22;57944;48.722;9.316;2022-10-31T04:52:48;8.00;99.90
70475;DHT22;57944;48.722;9.316;2022-10-31T04:55:26;8.10;99.90
70475;DHT22;57944;48.722;9.316;2022-10-31T04:58:28;8.20;99.90
70475;DHT22;57944;48.722;9.316;2022-10-31T05:00:58;8.20;99.90
70475;DHT22;57944;48.722;9.316;2022-10-31T05:03:29;8.20;99.90
70475;DHT22;57944;48.722;9.316;2022-10-31T05:05:59;8.10;99.90
70475;DHT22;57944;48.722;9.316;2022-10-31T05:08:29;8.00;99.90
70475;DHT22;57944;48.722;9.316;2022-10-31T05:11:04;8.10;99.90
70475;DHT22;57944;48.722;9.316;2022-10-31T05:13:36;8.10;99.90
70475;DHT22;57944;48.722;9.316;2022-10-31T05:16:12;8.10;99.90
70475;DHT22;57944;48.722;9.316;2022-10-31T05:19:01;8.00;99.90
70475;DHT22;57944;48.722;9.316;2022-10-31T05:21:49;8.20;99.90
70475;DHT22;57944;48.722;9.316;2022-10-31T05:24:19;8.50;99.90
70475;DHT22;57944;48.722;9.316;2022-10-31T05:26:53;8.40;99.90
70475;DHT22;57944;48.722;9.316;2022-10-31T05:29:23;8.40;99.90
70475;DHT22;57944;48.722;9.316;2022-10-31T05:31:53;8.50;99.90
70475;DHT22;57944;48.722;9.316;2022-10-31T05:34:42;8.70;99.90
70475;DHT22;57944;48.722;9.316;2022-10-31T05:37:31;8.90;99.90
70475;DHT22;57944;48.722;9.316;2022-10-31T05:40:02;9.30;99.90
70475;DHT22;57944;48.722;9.316;2022-10-31T05:42:38;9.20;99.90
70475;DHT22;57944;48.722;9.316;2022-10-31T05:45:10;8.90;99.90
70475;DHT22;57944;48.722;9.316;2022-10-31T05:47:53;8.60;99.90
70475;DHT22;57944;48.722;9.316;2022-10-31T05:50:43;8.30;99.90
70475;DHT22;57944;48.722;9.316;2022-10-31T05:53:13;8.20;99.90
70475;DHT22;57944;48.722;9.316;2022-10-31T05:55:44;8.20;99.90
70475;DHT22;57944;48.722;9.316;2022-10-31T05:58:21;8.20;99.90
70475;DHT22;57944;48.722;9.316;2022-10-31T06:01:09;8.00;99.90
70475;DHT22;57944;48.722;9.316;2022-10-31T06:03:39;7.90;99.90
70475;DHT22;57944;48.722;9.316;2022-10-31T06:06:09;7.90;99.90
70475;DHT22;57944;48.722;9.316;2022-10-31T06:08:41;7.80;99.90
70475;DHT22;57944;48.722;9.316;2022-10-31T06:11:14;7.80;99.90
70475;DHT22;57944;48.722;9.316;2022-10-31T06:14:10;7.80;99.90
70475;DHT22;57944;48.722;9.316;2022-10-31T06:16:49;7.70;99.90
70475;DHT22;57944;48.722;9.316;2022-10-31T06:19:48;7.60;99.90
70475;DHT22;57944;48.722;9.316;2022-10-31T06:22:23;7.60;99.90
70475;DHT22;57944;48.722;9.316;2022-10-31T06:24:54;7.40;99.90
70475;DHT22;57944;48.722;9.316;2022-10-31T06:27:28;7.60;99.90
70475;DHT22;57944;48.722;9.316;2022-10-31T06:30:08;7.60;99.90
70475;DHT22;57944;48.722;9.316;2022-10-31T06:32:39;7.70;99.90
70475;DHT22;57944;48.722;9.316;2022-10-31T06:35:09;7.80;99.90
70475;DHT22;57944;48.722;9.316;2022-10-31T06:37:41;7.90;99.90
70475;DHT22;57944;48.722;9.316;2022-10-31T06:40:27;8.00;99.90
70475;DHT22;57944;48.722;9.316;2022-10-31T06:43:17;8.00;99.90
70475;DHT22;57944;48.722;9.316;2022-10-31T06:45:51;8.10;99.90
70475;DHT22;57944;48.722;9.316;2022-10-31T06:48:21;8.20;99.90
70475;DHT22;57944;48.722;9.316;2022-10-31T06:51:15;8.20;99.90
70475;DHT22;57944;48.722;9.316;2022-10-31T06:53:48;8.40;99.90
70475;DHT22;57944;48.722;9.316;2022-10-31T06:56:19;8.60;99.90
70475;DHT22;57944;48.722;9.316;2022-10-31T06:58:54;8.70;99.90
70475;DHT22;57944;48.722;9.316;2022-10-31T07:01:53;9.00;99.90
70475;DHT22;57944;48.722;9.316;2022-10-31T07:04:23;9.00;99.90
70475;DHT22;57944;48.722;9.316;2022-10-31T07:06:54;8.90;99.90
70475;DHT22;57944;48.722;9.316;2022-10-31T07:09:24;8.90;99.90
70475;DHT22;57944;48.722;9.316;2022-10-31T07:11:56;8.90;99.90
70475;DHT22;57944;48.722;9.316;2022-10-31T07:14:28;9.10;99.90
70475;DHT22;57944;48.722;9.316;2022-10-31T07:17:01;9.10;99.90
70475;DHT22;57944;48.722;9.316;2022-10-31T07:19:34;9.30;99.90
70475;DHT22;57944;48.722;9.316;2022-10-31T07:22:04;9.60;99.90
70475;DHT22;57944;48.722;9.316;2022-10-31T07:24:35;9.90;99.90
70475;DHT22;57944;48.722;9.316;2022-10-31T07:27:11;9.90;99.90
70475;DHT22;57944;48.722;9.316;2022-10-31T07:29:42;9.90;99.90
70475;DHT22;57944;48.722;9.316;2022-10-31T07:32:15;9.90;99.90
70475;DHT22;57944;48.722;9.316;2022-10-31T07:34:51;10.00;99.90
70475;DHT22;57944;48.722;9.316;2022-10-31T07:37:23;10.10;99.90
70475;DHT22;57944;48.722;9.316;2022-10-31T07:39:58;10.10;99.90
70475;DHT22;57944;48.722;9.316;2022-10-31T07:42:33;10.00;99.90
70475;DHT22;57944;48.722;9.316;2022-10-31T07:45:07;10.00;99.90
70475;DHT22;57944;48.722;9.316;2022-10-31T07:48:01;10.30;99.90
70475;DHT22;57944;48.722;9.316;2022-10-31T07:50:51;10.40;99.90
70475;DHT22;57944;48.722;9.316;2022-10-31T07:53:40;10.30;99.90
70475;DHT22;57944;48.722;9.316;2022-10-31T07:56:17;10.30;99.90
70475;DHT22;57944;48.722;9.316;2022-10-31T07:58:48;10.40;99.90
70475;DHT22;57944;48.722;9.316;2022-10-31T08:01:18;10.40;99.90
70475;DHT22;57944;48.722;9.316;2022-10-31T08:04:09;10.50;99.90
70475;DHT22;57944;48.722;9.316;2022-10-31T08:07:09;10.60;99.90
70475;DHT22;57944;48.722;9.316;2022-10-31T08:09:44;10.70;99.90
70475;DHT22;57944;48.722;9.316;2022-10-31T08:12:19;10.80;99.90
70475;DHT22;57944;48.722;9.316;2022-10-31T08:14:49;11.00;99.90
70475;DHT22;57944;48.722;9.316;2022-10-31T08:17:19;11.10;99.90
70475;DHT22;57944;48.722;9.316;2022-10-31T08:19:56;11.30;99.90
70475;DHT22;57944;48.722;9.316;2022-10-31T08:22:31;11.50;99.90
70475;DHT22;57944;48.722;9.316;2022-10-31T08:25:08;11.50;99.90
70475;DHT22;57944;48.722;9.316;2022-10-31T08:27:38;11.70;99.90
70475;DHT22;57944;48.722;9.316;2022-10-31T08:30:16;12.00;99.90
70475;DHT22;57944;48.722;9.316;2022-10-31T08:33:10;12.30;99.90
70475;DHT22;57944;48.722;9.316;2022-10-31T08:36:04;12.60;99.90
70475;DHT22;57944;48.722;9.316;2022-10-31T08:38:55;12.70;99.90
70475;DHT22;57944;48.722;9.316;2022-10-31T08:41:29;12.90;99.90
70475;DHT22;57944;48.722;9.316;2022-10-31T08:44:00;13.10;99.90
70475;DHT22;57944;48.722;9.316;2022-10-31T08:46:31;13.40;99.90
70475;DHT22;57944;48.722;9.316;2022-10-31T08:49:02;13.60;99.90
70475;DHT22;57944;48.722;9.316;2022-10-31T08:51:35;13.90;99.90
70475;DHT22;57944;48.722;9.316;2022-10-31T08:54:06;14.10;99.90
70475;DHT22;57944;48.722;9.316;2022-10-31T08:56:57;14.30;99.90
70475;DHT22;57944;48.722;9.316;2022-10-31T08:59:40;14.60;99.90
70475;DHT22;57944;48.722;9.316;2022-10-31T09:02:24;14.70;99.90
70475;DHT22;57944;48.722;9.316;2022-10-31T09:04:58;15.00;99.90
70475;DHT22;57944;48.722;9.316;2022-10-31T09:07:31;15.30;99.90
70475;DHT22;57944;48.722;9.316;2022-10-31T09:10:01;15.50;99.90
70475;DHT22;57944;48.722;9.316;2022-10-31T09:12:35;15.50;99.90
70475;DHT22;57944;48.722;9.316;2022-10-31T09:15:23;15.50;99.90
70475;DHT22;57944;48.722;9.316;2022-10-31T09:18:14;15.40;99.90
70475;DHT22;57944;48.722;9.316;2022-10-31T09:21:04;15.20;99.90
70475;DHT22;57944;48.722;9.316;2022-10-31T09:23:37;14.90;99.90
70475;DHT22;57944;48.722;9.316;2022-10-31T09:26:07;15.00;99.90
70475;DHT22;57944;48.722;9.316;2022-10-31T09:28:40;15.20;99.90
70475;DHT22;57944;48.722;9.316;2022-10-31T09:31:13;15.50;99.90
70475;DHT22;57944;48.722;9.316;2022-10-31T09:33:46;15.80;99.90
70475;DHT22;57944;48.722;9.316;2022-10-31T09:36:34;15.90;99.90
70475;DHT22;57944;48.722;9.316;2022-10-31T09:39:11;16.00;99.90
70475;DHT22;57944;48.722;9.316;2022-10-31T09:45:07;16.30;99.90
70475;DHT22;57944;48.722;9.316;2022-10-31T09:47:52;16.60;99.90
70475;DHT22;57944;48.722;9.316;2022-10-31T09:50:38;16.60;99.90
70475;DHT22;57944;48.722;9.316;2022-10-31T09:53:38;17.00;99.90
70475;DHT22;57944;48.722;9.316;2022-10-31T09:56:20;17.30;99.90
70475;DHT22;57944;48.722;9.316;2022-10-31T09:58:57;17.40;99.90
70475;DHT22;57944;48.722;9.316;2022-10-31T10:01:38;17.60;99.90
70475;DHT22;57944;48.722;9.316;2022-10-31T10:04:32;17.50;99.90
70475;DHT22;57944;48.722;9.316;2022-10-31T10:10:14;17.90;99.90
70475;DHT22;57944;48.722;9.316;2022-10-31T10:13:05;17.90;99.90
70475;DHT22;57944;48.722;9.316;2022-10-31T10:16:00;18.00;99.90
70475;DHT22;57944;48.722;9.316;2022-10-31T10:18:55;17.90;99.90
70475;DHT22;57944;48.722;9.316;2022-10-31T10:21:39;18.20;99.90
70475;DHT22;57944;48.722;9.316;2022-10-31T10:24:29;18.40;99.90
70475;DHT22;57944;48.722;9.316;2022-10-31T10:27:14;18.50;99.90
70475;DHT22;57944;48.722;9.316;2022-10-31T10:29:58;18.70;99.90
70475;DHT22;57944;48.722;9.316;2022-10-31T10:32:40;19.00;99.90
70475;DHT22;57944;48.722;9.316;2022-10-31T10:35:22;19.00;99.90
70475;DHT22;57944;48.722;9.316;2022-10-31T10:37:58;19.30;99.90
70475;DHT22;57944;48.722;9.316;2022-10-31T10:40:33;19.50;99.90
70475;DHT22;57944;48.722;9.316;2022-10-31T10:43:18;19.70;99.90
70475;DHT22;57944;48.722;9.316;2022-10-31T10:49:08;19.90;99.90
70475;DHT22;57944;48.722;9.316;2022-10-31T10:51:50;19.60;99.90
70475;DHT22;57944;48.722;9.316;2022-10-31T10:54:59;19.40;99.90
70475;DHT22;57944;48.722;9.316;2022-10-31T10:57:51;19.40;99.90
70475;DHT22;57944;48.722;9.316;2022-10-31T11:00:29;18.90;99.90
70475;DHT22;57944;48.722;9.316;2022-10-31T11:03:04;18.90;99.90
70475;DHT22;57944;48.722;9.316;2022-10-31T11:05:37;18.90;99.90
70475;DHT22;57944;48.722;9.316;2022-10-31T11:08:22;19.00;99.90
70475;DHT22;57944;48.722;9.316;2022-10-31T11:10:59;19.20;99.90
70475;DHT22;57944;48.722;9.316;2022-10-31T11:13:33;19.40;99.90
70475;DHT22;57944;48.722;9.316;2022-10-31T11:16:07;19.50;99.90
70475;DHT22;57944;48.722;9.316;2022-10-31T11:18:44;19.50;99.90
70475;DHT22;57944;48.722;9.316;2022-10-31T11:21:21;19.70;99.90
70475;DHT22;57944;48.722;9.316;2022-10-31T11:24:02;20.10;99.90
70475;DHT22;57944;48.722;9.316;2022-10-31T11:26:33;20.50;99.90
70475;DHT22;57944;48.722;9.316;2022-10-31T11:29:05;20.50;99.90
70475;DHT22;57944;48.722;9.316;2022-10-31T11:31:45;20.50;99.90
70475;DHT22;57944;48.722;9.316;2022-10-31T11:34:29;20.60;99.90
70475;DHT22;57944;48.722;9.316;2022-10-31T11:44:58;20.60;99.90
70475;DHT22;57944;48.722;9.316;2022-10-31T11:47:30;20.60;99.90
70475;DHT22;57944;48.722;9.316;2022-10-31T11:50:15;20.80;99.90
70475;DHT22;57944;48.722;9.316;2022-10-31T13:11:51;20.60;99.90
70475;DHT22;57944;48.722;9.316;2022-10-31T13:14:30;20.50;99.90
70475;DHT22;57944;48.722;9.316;2022-10-31T13:17:23;20.20;99.90
70475;DHT22;57944;48.722;9.316;2022-10-31T13:20:13;20.20;99.90
70475;DHT22;57944;48.722;9.316;2022-10-31T13:22:51;20.20;99.90
70475;DHT22;57944;48.722;9.316;2022-10-31T13:25:25;20.10;99.90
70475;DHT22;57944;48.722;9.316;2022-10-31T13:28:05;20.20;99.90
70475;DHT22;57944;48.722;9.316;2022-10-31T13:30:51;20.30;99.90
70475;DHT22;57944;48.722;9.316;2022-10-31T13:33:25;20.20;99.90
70475;DHT22;57944;48.722;9.316;2022-10-31T13:36:10;20.30;99.90
70475;DHT22;57944;48.722;9.316;2022-10-31T13:38:51;20.40;99.90
70475;DHT22;57944;48.722;9.316;2022-10-31T13:41:40;20.40;99.90
70475;DHT22;57944;48.722;9.316;2022-10-31T13:44:21;20.50;99.90
70475;DHT22;57944;48.722;9.316;2022-10-31T13:46:53;20.60;99.90
70475;DHT22;57944;48.722;9.316;2022-10-31T13:49:37;20.90;99.90
70475;DHT22;57944;48.722;9.316;2022-10-31T13:52:16;21.10;99.90
70475;DHT22;57944;48.722;9.316;2022-10-31T13:54:53;21.40;99.90
70475;DHT22;57944;48.722;9.316;2022-10-31T13:57:37;21.50;99.90
70475;DHT22;57944;48.722;9.316;2022-10-31T14:00:24;21.30;99.90
70475;DHT22;57944;48.722;9.316;2022-10-31T14:03:01;21.40;99.90
70475;DHT22;57944;48.722;9.316;2022-10-31T14:05:33;21.20;99.90
70475;DHT22;57944;48.722;9.316;2022-10-31T14:08:05;21.20;99.90
70475;DHT22;57944;48.722;9.316;2022-10-31T14:10:50;21.00;99.90
70475;DHT22;57944;48.722;9.316;2022-10-31T14:13:26;20.60;99.90
70475;DHT22;57944;48.722;9.316;2022-10-31T14:16:18;20.40;99.90
70475;DHT22;57944;48.722;9.316;2022-10-31T14:18:58;20.30;99.90
70475;DHT22;57944;48.722;9.316;2022-10-31T14:21:37;20.20;99.90
70475;DHT22;57944;48.722;9.316;2022-10-31T14:24:14;20.10;99.90
70475;DHT22;57944;48.722;9.316;2022-10-31T14:27:00;20.00;99.90
70475;DHT22;57944;48.722;9.316;2022-10-31T14:29:33;20.00;99.90
70475;DHT22;57944;48.722;9.316;2022-10-31T14:32:22;19.80;99.90
70475;DHT22;57944;48.722;9.316;2022-10-31T14:34:56;19.70;99.90
70475;DHT22;57944;48.722;9.316;2022-10-31T14:37:44;19.50;99.90
70475;DHT22;57944;48.722;9.316;2022-10-31T14:40:35;19.50;99.90
70475;DHT22;57944;48.722;9.316;2022-10-31T14:46:59;19.20;99.90
70475;DHT22;57944;48.722;9.316;2022-10-31T14:52:51;18.60;99.90
70475;DHT22;57944;48.722;9.316;2022-10-31T14:55:25;18.20;99.90
70475;DHT22;57944;48.722;9.316;2022-10-31T14:58:00;18.10;99.90
70475;DHT22;57944;48.722;9.316;2022-10-31T15:00:35;17.90;99.90
70475;DHT22;57944;48.722;9.316;2022-10-31T15:03:12;17.70;99.90
70475;DHT22;57944;48.722;9.316;2022-10-31T15:05:50;17.50;99.90
70475;DHT22;57944;48.722;9.316;2022-10-31T15:08:34;17.20;99.90
70475;DHT22;57944;48.722;9.316;2022-10-31T15:11:13;17.00;99.90
70475;DHT22;57944;48.722;9.316;2022-10-31T15:13:46;16.90;99.90
70475;DHT22;57944;48.722;9.316;2022-10-31T15:16:20;16.80;99.90
70475;DHT22;57944;48.722;9.316;2022-10-31T15:18:54;16.70;99.90
70475;DHT22;57944;48.722;9.316;2022-10-31T15:21:30;16.70;99.90
70475;DHT22;57944;48.722;9.316;2022-10-31T15:24:01;16.70;99.90
70475;DHT22;57944;48.722;9.316;2022-10-31T15:26:38;16.60;99.90
70475;DHT22;57944;48.722;9.316;2022-10-31T15:29:13;16.60;99.90
70475;DHT22;57944;48.722;9.316;2022-10-31T15:31:51;16.50;99.90
70475;DHT22;57944;48.722;9.316;2022-10-31T15:34:26;16.50;99.90
70475;DHT22;57944;48.722;9.316;2022-10-31T15:37:12;16.30;99.90
70475;DHT22;57944;48.722;9.316;2022-10-31T15:39:44;16.20;99.90
70475;DHT22;57944;48.722;9.316;2022-10-31T15:42:22;15.90;99.90
70475;DHT22;57944;48.722;9.316;2022-10-31T15:44:59;15.80;99.90
70475;DHT22;57944;48.722;9.316;2022-10-31T15:47:33;15.60;99.90
70475;DHT22;57944;48.722;9.316;2022-10-31T15:50:05;15.40;99.90
70475;DHT22;57944;48.722;9.316;2022-10-31T15:52:52;15.30;99.90
70475;DHT22;57944;48.722;9.316;2022-10-31T15:55:24;15.20;99.90
70475;DHT22;57944;48.722;9.316;2022-10-31T15:57:58;15.00;99.90
70475;DHT22;57944;48.722;9.316;2022-10-31T16:00:33;14.90;99.90
70475;DHT22;57944;48.722;9.316;2022-10-31T16:03:06;14.70;99.90
70475;DHT22;57944;48.722;9.316;2022-10-31T16:05:50;14.60;99.90
70475;DHT22;57944;48.722;9.316;2022-10-31T16:08:33;14.50;99.90
70475;DHT22;57944;48.722;9.316;2022-10-31T16:11:18;14.20;99.90
70475;DHT22;57944;48.722;9.316;2022-10-31T16:13:57;14.10;99.90
70475;DHT22;57944;48.722;9.316;2022-10-31T16:16:31;14.10;99.90
70475;DHT22;57944;48.722;9.316;2022-10-31T16:19:04;14.00;99.90
70475;DHT22;57944;48.722;9.316;2022-10-31T16:21:42;13.90;99.90
70475;DHT22;57944;48.722;9.316;2022-10-31T16:24:19;13.80;99.90
70475;DHT22;57944;48.722;9.316;2022-10-31T16:26:54;13.50;99.90
70475;DHT22;57944;48.722;9.316;2022-10-31T16:29:34;13.40;99.90
70475;DHT22;57944;48.722;9.316;2022-10-31T16:32:30;13.40;99.90
70475;DHT22;57944;48.722;9.316;2022-10-31T16:35:23;13.50;99.90
70475;DHT22;57944;48.722;9.316;2022-10-31T16:37:55;13.40;99.90
70475;DHT22;57944;48.722;9.316;2022-10-31T16:40:28;13.20;99.90
70475;DHT22;57944;48.722;9.316;2022-10-31T16:43:00;13.10;99.90
70475;DHT22;57944;48.722;9.316;2022-10-31T16:45:31;13.10;99.90
70475;DHT22;57944;48.722;9.316;2022-10-31T16:48:04;13.00;99.90
70475;DHT22;57944;48.722;9.316;2022-10-31T16:50:37;13.00;99.90
70475;DHT22;57944;48.722;9.316;2022-10-31T16:53:07;12.90;99.90
70475;DHT22;57944;48.722;9.316;2022-10-31T16:55:52;12.80;99.90
70475;DHT22;57944;48.722;9.316;2022-10-31T16:58:28;12.50;99.90
70475;DHT22;57944;48.722;9.316;2022-10-31T17:01:01;12.50;99.90
70475;DHT22;57944;48.722;9.316;2022-10-31T17:03:34;12.40;99.90
70475;DHT22;57944;48.722;9.316;2022-10-31T17:06:05;12.40;99.90
70475;DHT22;57944;48.722;9.316;2022-10-31T17:08:35;12.40;99.90
70475;DHT22;57944;48.722;9.316;2022-10-31T17:11:10;12.30;99.90
70475;DHT22;57944;48.722;9.316;2022-10-31T17:13:44;12.30;99.90
70475;DHT22;57944;48.722;9.316;2022-10-31T17:16:14;12.30;99.90
70475;DHT22;57944;48.722;9.316;2022-10-31T17:18:45;12.20;99.90
70475;DHT22;57944;48.722;9.316;2022-10-31T17:21:18;12.00;99.90
70475;DHT22;57944;48.722;9.316;2022-10-31T17:23:52;11.90;99.90
70475;DHT22;57944;48.722;9.316;2022-10-31T17:26:25;11.90;99.90
70475;DHT22;57944;48.722;9.316;2022-10-31T17:28:55;11.90;99.90
70475;DHT22;57944;48.722;9.316;2022-10-31T17:31:27;11.80;99.90
70475;DHT22;57944;48.722;9.316;2022-10-31T17:33:59;11.60;99.90
70475;DHT22;57944;48.722;9.316;2022-10-31T17:36:31;11.70;99.90
70475;DHT22;57944;48.722;9.316;2022-10-31T17:39:03;11.70;99.90
70475;DHT22;57944;48.722;9.316;2022-10-31T17:41:38;11.70;99.90
70475;DHT22;57944;48.722;9.316;2022-10-31T17:44:09;11.70;99.90
70475;DHT22;57944;48.722;9.316;2022-10-31T17:46:40;11.60;99.90
70475;DHT22;57944;48.722;9.316;2022-10-31T17:49:11;11.60;99.90
70475;DHT22;57944;48.722;9.316;2022-10-31T17:51:41;11.60;99.90
70475;DHT22;57944;48.722;9.316;2022-10-31T17:54:11;11.60;99.90
70475;DHT22;57944;48.722;9.316;2022-10-31T17:56:46;11.20;99.90
70475;DHT22;57944;48.722;9.316;2022-10-31T17:59:17;11.20;99.90
70475;DHT22;57944;48.722;9.316;2022-10-31T18:01:47;11.20;99.90
70475;DHT22;57944;48.722;9.316;2022-10-31T18:04:17;11.20;99.90
70475;DHT22;57944;48.722;9.316;2022-10-31T18:06:47;11.30;99.90
70475;DHT22;57944;48.722;9.316;2022-10-31T18:09:18;11.40;99.90
70475;DHT22;57944;48.722;9.316;2022-10-31T18:11:50;11.40;99.90
70475;DHT22;57944;48.722;9.316;2022-10-31T18:14:20;11.30;99.90
70475;DHT22;57944;48.722;9.316;2022-10-31T18:16:51;11.20;99.90
70475;DHT22;57944;48.722;9.316;2022-10-31T18:19:21;11.00;99.90
70475;DHT22;57944;48.722;9.316;2022-10-31T18:21:51;11.00;99.90
70475;DHT22;57944;48.722;9.316;2022-10-31T18:24:21;10.90;99.90
70475;DHT22;57944;48.722;9.316;2022-10-31T18:26:54;10.90;99.90